sensor_id;sensor_type;location;lat;lon;timestamp;pressure;altitude;pressure_sealevel;temperature;humidity
63343;BME280;49465;57.664;39.686;2023-04-08T00:01:12;101904.88;;;2.25;40.86
63343;BME280;49465;57.664;39.686;2023-04-08T00:03:39;101899.75;;;2.22;41.63
63343;BME280;49465;57.664;39.686;2023-04-08T00:06:14;101909.94;;;2.54;41.33
63343;BME280;49465;57.664;39.686;2023-04-08T00:08:41;101903.22;;;2.16;41.71
63343;BME280;49465;57.664;39.686;2023-04-08T00:11:19;101906.53;;;2.48;40.76
63343;BME280;49465;57.664;39.686;2023-04-08T00:13:48;101910.06;;;2.25;41.76
63343;BME280;49465;57.664;39.686;2023-04-08T00:16:20;101904.97;;;2.05;41.85
63343;BME280;49465;57.664;39.686;2023-04-08T00:18:50;101912.69;;;2.17;41.92
63343;BME280;49465;57.664;39.686;2023-04-08T00:21:17;101905.00;;;1.99;41.79
63343;BME280;49465;57.664;39.686;2023-04-08T00:23:46;101903.28;;;1.96;41.45
63343;BME280;49465;57.664;39.686;2023-04-08T00:26:15;101916.19;;;2.09;41.73
63343;BME280;49465;57.664;39.686;2023-04-08T00:28:47;101909.28;;;2.06;41.55
63343;BME280;49465;57.664;39.686;2023-04-08T00:31:13;101905.00;;;1.90;41.06
63343;BME280;49465;57.664;39.686;2023-04-08T00:33:59;101906.56;;;2.40;40.45
63343;BME280;49465;57.664;39.686;2023-04-08T00:36:29;101903.28;;;1.84;42.03
63343;BME280;49465;57.664;39.686;2023-04-08T00:38:55;101908.50;;;1.80;41.41
63343;BME280;49465;57.664;39.686;2023-04-08T00:41:30;101911.94;;;1.75;41.83
63343;BME280;49465;57.664;39.686;2023-04-08T00:44:02;101914.50;;;1.88;42.12
63343;BME280;49465;57.664;39.686;2023-04-08T00:46:49;101908.50;;;1.70;41.88
63343;BME280;49465;57.664;39.686;2023-04-08T00:49:27;101911.94;;;1.85;42.25
63343;BME280;49465;57.664;39.686;2023-04-08T00:51:58;101916.25;;;1.78;42.49
63343;BME280;49465;57.664;39.686;2023-04-08T00:54:25;101906.81;;;1.62;42.49
63343;BME280;49465;57.664;39.686;2023-04-08T00:56:54;101915.41;;;1.73;42.85
63343;BME280;49465;57.664;39.686;2023-04-08T00:59:24;101909.38;;;1.71;42.33
63343;BME280;49465;57.664;39.686;2023-04-08T01:02:09;101915.41;;;1.81;41.97
63343;BME280;49465;57.664;39.686;2023-04-08T01:09:47;101912.78;;;1.74;41.67
63343;BME280;49465;57.664;39.686;2023-04-08T01:12:19;101916.28;;;1.66;42.30
63343;BME280;49465;57.664;39.686;2023-04-08T01:14:48;101909.41;;;1.49;41.74
63343;BME280;49465;57.664;39.686;2023-04-08T01:17:19;101905.94;;;1.50;41.79
63343;BME280;49465;57.664;39.686;2023-04-08T01:19:47;101906.84;;;1.43;41.82
63343;BME280;49465;57.664;39.686;2023-04-08T01:22:36;101911.03;;;1.93;41.33
63343;BME280;49465;57.664;39.686;2023-04-08T01:25:21;101918.88;;;1.61;41.89
63343;BME280;49465;57.664;39.686;2023-04-08T01:27:52;101912.81;;;1.61;42.10
63343;BME280;49465;57.664;39.686;2023-04-08T01:30:32;101914.50;;;1.80;41.46
63343;BME280;49465;57.664;39.686;2023-04-08T01:33:03;101909.38;;;1.62;41.96
63343;BME280;49465;57.664;39.686;2023-04-08T01:35:36;101911.97;;;1.54;41.85
63343;BME280;49465;57.664;39.686;2023-04-08T01:38:04;101911.13;;;1.38;41.90
63343;BME280;49465;57.664;39.686;2023-04-08T01:40:37;101912.84;;;1.51;42.15
63343;BME280;49465;57.664;39.686;2023-04-08T01:43:07;101908.56;;;1.47;42.00
63343;BME280;49465;57.664;39.686;2023-04-08T01:45:35;101909.41;;;1.34;41.99
63343;BME280;49465;57.664;39.686;2023-04-08T01:48:04;101909.41;;;1.46;42.16
63343;BME280;49465;57.664;39.686;2023-04-08T01:50:35;101908.56;;;1.47;42.33
63343;BME280;49465;57.664;39.686;2023-04-08T01:53:01;101908.56;;;1.30;42.01
63343;BME280;49465;57.664;39.686;2023-04-08T01:55:30;101907.69;;;1.30;42.27
63343;BME280;49465;57.664;39.686;2023-04-08T01:57:59;101912.84;;;1.39;42.34
63343;BME280;49465;57.664;39.686;2023-04-08T02:00:28;101913.72;;;1.33;42.26
63343;BME280;49465;57.664;39.686;2023-04-08T02:02:55;101904.25;;;1.25;42.28
63343;BME280;49465;57.664;39.686;2023-04-08T02:05:22;101909.41;;;1.25;42.38
63343;BME280;49465;57.664;39.686;2023-04-08T02:07:49;101907.69;;;1.24;42.60
63343;BME280;49465;57.664;39.686;2023-04-08T02:10:16;101905.13;;;1.22;42.51
63343;BME280;49465;57.664;39.686;2023-04-08T02:12:48;101911.13;;;1.23;42.56
63343;BME280;49465;57.664;39.686;2023-04-08T02:15:15;101907.69;;;1.21;42.56
63343;BME280;49465;57.664;39.686;2023-04-08T02:17:56;101908.53;;;1.43;42.86
63343;BME280;49465;57.664;39.686;2023-04-08T02:20:29;101910.25;;;1.19;42.67
63343;BME280;49465;57.664;39.686;2023-04-08T02:23:08;101912.88;;;1.45;42.88
63343;BME280;49465;57.664;39.686;2023-04-08T02:25:39;101915.44;;;1.25;42.78
63343;BME280;49465;57.664;39.686;2023-04-08T02:28:10;101917.16;;;1.23;42.96
63343;BME280;49465;57.664;39.686;2023-04-08T02:30:42;101921.47;;;1.38;42.78
63343;BME280;49465;57.664;39.686;2023-04-08T02:33:10;101919.72;;;1.15;43.04
63343;BME280;49465;57.664;39.686;2023-04-08T02:35:43;101914.56;;;1.38;43.67
63343;BME280;49465;57.664;39.686;2023-04-08T02:38:10;101917.16;;;1.14;43.04
63343;BME280;49465;57.664;39.686;2023-04-08T02:40:36;101919.75;;;1.12;43.04
63343;BME280;49465;57.664;39.686;2023-04-08T02:43:03;101922.34;;;1.12;43.16
63343;BME280;49465;57.664;39.686;2023-04-08T02:45:34;101927.47;;;1.15;43.59
63343;BME280;49465;57.664;39.686;2023-04-08T02:48:03;101920.63;;;1.16;43.38
63343;BME280;49465;57.664;39.686;2023-04-08T02:50:30;101917.16;;;1.12;43.06
63343;BME280;49465;57.664;39.686;2023-04-08T02:52:59;101921.47;;;1.12;43.50
63343;BME280;49465;57.664;39.686;2023-04-08T02:55:28;101928.34;;;1.25;43.78
63343;BME280;49465;57.664;39.686;2023-04-08T02:57:54;101924.06;;;1.10;43.52
63343;BME280;49465;57.664;39.686;2023-04-08T03:00:29;101928.34;;;1.27;43.79
63343;BME280;49465;57.664;39.686;2023-04-08T03:03:09;101923.19;;;1.27;44.00
63343;BME280;49465;57.664;39.686;2023-04-08T03:05:38;101918.03;;;1.27;44.27
63343;BME280;49465;57.664;39.686;2023-04-08T03:08:10;101927.50;;;1.26;44.21
63343;BME280;49465;57.664;39.686;2023-04-08T03:10:42;101920.63;;;1.10;44.09
63343;BME280;49465;57.664;39.686;2023-04-08T03:13:14;101923.19;;;1.10;44.28
63343;BME280;49465;57.664;39.686;2023-04-08T03:15:46;101924.06;;;1.12;44.35
63343;BME280;49465;57.664;39.686;2023-04-08T03:18:19;101919.72;;;1.15;44.41
63343;BME280;49465;57.664;39.686;2023-04-08T03:20:48;101930.06;;;1.31;44.73
63343;BME280;49465;57.664;39.686;2023-04-08T03:23:17;101925.75;;;1.17;44.42
63343;BME280;49465;57.664;39.686;2023-04-08T03:25:49;101932.66;;;1.31;44.78
63343;BME280;49465;57.664;39.686;2023-04-08T03:28:23;101928.38;;;1.22;44.66
63343;BME280;49465;57.664;39.686;2023-04-08T03:30:55;101927.50;;;1.46;45.19
63343;BME280;49465;57.664;39.686;2023-04-08T03:33:25;101933.50;;;1.39;45.04
63343;BME280;49465;57.664;39.686;2023-04-08T03:35:53;101936.13;;;1.28;44.79
63343;BME280;49465;57.664;39.686;2023-04-08T03:38:31;101936.09;;;1.62;44.80
63343;BME280;49465;57.664;39.686;2023-04-08T03:41:06;101936.13;;;1.67;44.48
63343;BME280;49465;57.664;39.686;2023-04-08T03:43:33;101925.75;;;1.39;44.64
63343;BME280;49465;57.664;39.686;2023-04-08T03:45:59;101925.78;;;1.42;45.07
63343;BME280;49465;57.664;39.686;2023-04-08T03:48:28;101931.78;;;1.56;45.70
63343;BME280;49465;57.664;39.686;2023-04-08T03:50:54;101933.53;;;1.48;45.37
63343;BME280;49465;57.664;39.686;2023-04-08T03:53:21;101928.38;;;1.51;45.65
63343;BME280;49465;57.664;39.686;2023-04-08T03:55:50;101948.16;;;1.75;45.93
63343;BME280;49465;57.664;39.686;2023-04-08T03:58:16;101941.25;;;1.68;45.71
63343;BME280;49465;57.664;39.686;2023-04-08T04:00:45;101934.38;;;1.75;45.78
63343;BME280;49465;57.664;39.686;2023-04-08T04:03:14;101947.28;;;1.83;45.98
63343;BME280;49465;57.664;39.686;2023-04-08T04:05:41;101942.09;;;1.90;46.09
63343;BME280;49465;57.664;39.686;2023-04-08T04:08:07;101936.03;;;1.97;46.14
63343;BME280;49465;57.664;39.686;2023-04-08T04:10:34;101942.03;;;2.09;46.13
63343;BME280;49465;57.664;39.686;2023-04-08T04:13:01;101937.72;;;2.14;45.92
63343;BME280;49465;57.664;39.686;2023-04-08T04:15:27;101942.84;;;2.23;46.33
63343;BME280;49465;57.664;39.686;2023-04-08T04:17:56;101935.06;;;2.35;45.70
63343;BME280;49465;57.664;39.686;2023-04-08T04:20:26;101943.59;;;2.59;45.88
63343;BME280;49465;57.664;39.686;2023-04-08T04:22:55;101941.00;;;2.59;46.40
63343;BME280;49465;57.664;39.686;2023-04-08T04:25:22;101948.69;;;2.71;46.24
63343;BME280;49465;57.664;39.686;2023-04-08T04:27:49;101944.31;;;2.81;46.41
63343;BME280;49465;57.664;39.686;2023-04-08T04:30:15;101944.25;;;2.95;45.93
63343;BME280;49465;57.664;39.686;2023-04-08T04:32:43;101945.91;;;3.07;46.09
63343;BME280;49465;57.664;39.686;2023-04-08T04:35:10;101944.06;;;3.21;45.53
63343;BME280;49465;57.664;39.686;2023-04-08T04:37:36;101943.97;;;3.33;45.82
63343;BME280;49465;57.664;39.686;2023-04-08T04:40:04;101941.28;;;3.47;45.24
63343;BME280;49465;57.664;39.686;2023-04-08T04:42:39;101939.41;;;3.63;43.52
63343;BME280;49465;57.664;39.686;2023-04-08T04:45:06;101934.03;;;3.80;43.01
63343;BME280;49465;57.664;39.686;2023-04-08T04:47:35;101947.53;;;4.13;42.72
63343;BME280;49465;57.664;39.686;2023-04-08T04:50:05;101940.50;;;4.21;42.83
63343;BME280;49465;57.664;39.686;2023-04-08T04:52:35;101938.41;;;4.52;42.24
63343;BME280;49465;57.664;39.686;2023-04-08T04:55:08;101941.53;;;4.79;42.45
63343;BME280;49465;57.664;39.686;2023-04-08T04:57:44;101937.59;;;5.11;41.86
63343;BME280;49465;57.664;39.686;2023-04-08T05:00:13;101933.38;;;5.04;41.68
63343;BME280;49465;57.664;39.686;2023-04-08T05:02:44;101938.25;;;5.25;42.45
63343;BME280;49465;57.664;39.686;2023-04-08T05:05:11;101930.22;;;5.39;41.29
63343;BME280;49465;57.664;39.686;2023-04-08T05:07:41;101934.16;;;5.60;42.15
63343;BME280;49465;57.664;39.686;2023-04-08T05:10:10;101938.81;;;5.92;41.26
63343;BME280;49465;57.664;39.686;2023-04-08T05:12:36;101932.63;;;6.00;41.02
63343;BME280;49465;57.664;39.686;2023-04-08T05:15:06;101939.00;;;6.28;40.28
63343;BME280;49465;57.664;39.686;2023-04-08T05:17:33;101932.69;;;6.40;40.35
63343;BME280;49465;57.664;39.686;2023-04-08T05:20:03;101934.84;;;6.62;40.10
63343;BME280;49465;57.664;39.686;2023-04-08T05:22:30;101943.09;;;6.82;40.36
63343;BME280;49465;57.664;39.686;2023-04-08T05:24:57;101930.56;;;6.98;40.11
63343;BME280;49465;57.664;39.686;2023-04-08T05:27:49;101944.72;;;7.24;39.54
63343;BME280;49465;57.664;39.686;2023-04-08T05:30:14;101933.03;;;7.39;39.82
63343;BME280;49465;57.664;39.686;2023-04-08T05:32:41;101941.28;;;7.58;39.29
63343;BME280;49465;57.664;39.686;2023-04-08T05:35:08;101946.00;;;7.76;38.92
63343;BME280;49465;57.664;39.686;2023-04-08T05:37:37;101941.13;;;7.97;39.00
63343;BME280;49465;57.664;39.686;2023-04-08T05:40:12;101944.00;;;8.19;38.68
63343;BME280;49465;57.664;39.686;2023-04-08T05:42:48;101943.59;;;8.64;38.14
63343;BME280;49465;57.664;39.686;2023-04-08T05:45:17;101940.22;;;8.60;39.11
63343;BME280;49465;57.664;39.686;2023-04-08T05:47:44;101946.59;;;8.80;37.68
63343;BME280;49465;57.664;39.686;2023-04-08T05:50:14;101952.44;;;9.16;37.48
63343;BME280;49465;57.664;39.686;2023-04-08T05:52:44;101946.56;;;9.36;37.98
63343;BME280;49465;57.664;39.686;2023-04-08T05:55:13;101950.13;;;9.60;37.48
63343;BME280;49465;57.664;39.686;2023-04-08T05:57:48;101937.53;;;9.97;37.05
63343;BME280;49465;57.664;39.686;2023-04-08T06:00:15;101937.53;;;9.97;36.05
63343;BME280;49465;57.664;39.686;2023-04-08T06:02:52;101934.03;;;10.21;35.85
63343;BME280;49465;57.664;39.686;2023-04-08T06:05:21;101936.16;;;10.59;34.47
63343;BME280;49465;57.664;39.686;2023-04-08T06:07:50;101940.88;;;10.73;35.12
63343;BME280;49465;57.664;39.686;2023-04-08T06:12:56;101928.22;;;11.26;34.64
63343;BME280;49465;57.664;39.686;2023-04-08T06:15:30;101931.25;;;11.58;34.26
63343;BME280;49465;57.664;39.686;2023-04-08T06:17:57;101921.81;;;11.75;33.82
63343;BME280;49465;57.664;39.686;2023-04-08T06:20:29;101930.19;;;12.03;34.91
63343;BME280;49465;57.664;39.686;2023-04-08T06:22:58;101931.03;;;12.24;33.72
63343;BME280;49465;57.664;39.686;2023-04-08T06:25:27;101934.38;;;12.47;33.93
63343;BME280;49465;57.664;39.686;2023-04-08T06:27:55;101923.78;;;12.68;33.99
63343;BME280;49465;57.664;39.686;2023-04-08T06:30:27;101923.59;;;12.90;32.88
63343;BME280;49465;57.664;39.686;2023-04-08T06:32:54;101912.50;;;13.02;32.56
63343;BME280;49465;57.664;39.686;2023-04-08T06:35:23;101931.63;;;13.23;33.48
63343;BME280;49465;57.664;39.686;2023-04-08T06:37:49;101923.56;;;13.45;32.76
63343;BME280;49465;57.664;39.686;2023-04-08T06:40:22;101933.38;;;13.76;32.65
63343;BME280;49465;57.664;39.686;2023-04-08T06:42:51;101932.16;;;13.99;33.10
63343;BME280;49465;57.664;39.686;2023-04-08T06:45:23;101920.44;;;14.05;32.15
63343;BME280;49465;57.664;39.686;2023-04-08T06:48:06;101928.59;;;14.34;32.42
63343;BME280;49465;57.664;39.686;2023-04-08T06:50:37;101930.22;;;14.52;31.58
63343;BME280;49465;57.664;39.686;2023-04-08T06:53:03;101922.66;;;14.62;31.77
63343;BME280;49465;57.664;39.686;2023-04-08T06:55:30;101920.53;;;14.85;31.57
63343;BME280;49465;57.664;39.686;2023-04-08T06:57:59;101916.69;;;15.06;31.23
63343;BME280;49465;57.664;39.686;2023-04-08T07:00:33;101922.06;;;15.35;30.38
63343;BME280;49465;57.664;39.686;2023-04-08T07:03:02;101927.19;;;15.52;29.64
63343;BME280;49465;57.664;39.686;2023-04-08T07:05:31;101910.97;;;15.58;29.85
63343;BME280;49465;57.664;39.686;2023-04-08T07:08:06;101924.25;;;15.87;30.07
63343;BME280;49465;57.664;39.686;2023-04-08T07:10:36;101922.84;;;15.96;29.57
63343;BME280;49465;57.664;39.686;2023-04-08T07:13:08;101921.53;;;16.17;29.62
63343;BME280;49465;57.664;39.686;2023-04-08T07:15:35;101913.84;;;16.41;29.37
63343;BME280;49465;57.664;39.686;2023-04-08T07:18:02;101921.56;;;16.59;28.50
63343;BME280;49465;57.664;39.686;2023-04-08T07:20:29;101914.22;;;16.77;28.51
63343;BME280;49465;57.664;39.686;2023-04-08T07:22:56;101910.06;;;16.87;27.84
63343;BME280;49465;57.664;39.686;2023-04-08T07:25:25;101922.13;;;17.06;28.04
63343;BME280;49465;57.664;39.686;2023-04-08T07:27:55;101912.50;;;17.17;27.40
63343;BME280;49465;57.664;39.686;2023-04-08T07:30:22;101910.19;;;17.38;27.28
63343;BME280;49465;57.664;39.686;2023-04-08T07:32:54;101917.84;;;17.56;27.33
63343;BME280;49465;57.664;39.686;2023-04-08T07:35:22;101914.16;;;17.71;27.75
63343;BME280;49465;57.664;39.686;2023-04-08T07:37:53;101916.75;;;17.86;26.73
63343;BME280;49465;57.664;39.686;2023-04-08T07:40:20;101907.91;;;17.98;26.53
63343;BME280;49465;57.664;39.686;2023-04-08T07:42:49;101912.16;;;18.13;27.31
63343;BME280;49465;57.664;39.686;2023-04-08T07:45:16;101897.38;;;18.22;26.48
63343;BME280;49465;57.664;39.686;2023-04-08T07:47:49;101904.56;;;18.33;25.68
63343;BME280;49465;57.664;39.686;2023-04-08T07:50:15;101910.81;;;18.45;26.25
63343;BME280;49465;57.664;39.686;2023-04-08T07:52:41;101910.25;;;18.52;25.77
63343;BME280;49465;57.664;39.686;2023-04-08T07:55:08;101912.84;;;18.65;25.95
63343;BME280;49465;57.664;39.686;2023-04-08T07:57:37;101891.47;;;18.80;26.38
63343;BME280;49465;57.664;39.686;2023-04-08T08:00:04;101911.34;;;18.74;25.94
63343;BME280;49465;57.664;39.686;2023-04-08T08:02:32;101907.28;;;18.81;25.38
63343;BME280;49465;57.664;39.686;2023-04-08T08:05:01;101897.34;;;18.96;23.85
63343;BME280;49465;57.664;39.686;2023-04-08T08:07:31;101904.66;;;19.05;23.70
63343;BME280;49465;57.664;39.686;2023-04-08T08:09:58;101893.38;;;19.02;25.28
63343;BME280;49465;57.664;39.686;2023-04-08T08:12:27;101893.13;;;19.05;24.23
63343;BME280;49465;57.664;39.686;2023-04-08T08:14:53;101886.06;;;19.16;25.32
63343;BME280;49465;57.664;39.686;2023-04-08T08:17:24;101887.25;;;19.12;25.03
63343;BME280;49465;57.664;39.686;2023-04-08T08:19:56;101885.47;;;19.24;24.40
63343;BME280;49465;57.664;39.686;2023-04-08T08:22:26;101883.94;;;19.33;23.64
63343;BME280;49465;57.664;39.686;2023-04-08T08:24:58;101891.63;;;19.60;23.17
63343;BME280;49465;57.664;39.686;2023-04-08T08:27:27;101882.63;;;19.50;24.71
63343;BME280;49465;57.664;39.686;2023-04-08T08:30:02;101890.09;;;19.80;23.22
63343;BME280;49465;57.664;39.686;2023-04-08T08:32:32;101886.22;;;19.73;23.23
63343;BME280;49465;57.664;39.686;2023-04-08T08:35:05;101875.06;;;19.79;23.54
63343;BME280;49465;57.664;39.686;2023-04-08T08:37:34;101873.75;;;19.85;24.21
63343;BME280;49465;57.664;39.686;2023-04-08T08:40:01;101870.38;;;19.94;24.03
63343;BME280;49465;57.664;39.686;2023-04-08T08:42:27;101870.72;;;20.01;23.28
63343;BME280;49465;57.664;39.686;2023-04-08T08:44:54;101864.06;;;20.06;22.93
63343;BME280;49465;57.664;39.686;2023-04-08T08:47:23;101865.38;;;20.23;22.01
63343;BME280;49465;57.664;39.686;2023-04-08T08:49:50;101865.63;;;20.20;22.96
63343;BME280;49465;57.664;39.686;2023-04-08T08:52:17;101870.81;;;20.22;22.26
63343;BME280;49465;57.664;39.686;2023-04-08T08:54:44;101865.59;;;20.31;22.40
63343;BME280;49465;57.664;39.686;2023-04-08T08:57:20;101865.53;;;20.65;24.28
63343;BME280;49465;57.664;39.686;2023-04-08T08:59:47;101868.09;;;20.44;22.90
63343;BME280;49465;57.664;39.686;2023-04-08T09:02:30;101861.63;;;20.81;20.62
63343;BME280;49465;57.664;39.686;2023-04-08T09:05:04;101864.88;;;20.84;23.31
63343;BME280;49465;57.664;39.686;2023-04-08T09:07:34;101868.16;;;20.77;23.06
63343;BME280;49465;57.664;39.686;2023-04-08T09:10:03;101862.03;;;20.65;22.19
63343;BME280;49465;57.664;39.686;2023-04-08T09:12:30;101860.81;;;20.69;21.59
63343;BME280;49465;57.664;39.686;2023-04-08T09:15:07;101867.41;;;21.07;23.22
63343;BME280;49465;57.664;39.686;2023-04-08T09:17:40;101865.03;;;21.04;22.86
63343;BME280;49465;57.664;39.686;2023-04-08T09:20:11;101853.44;;;20.93;22.09
63343;BME280;49465;57.664;39.686;2023-04-08T09:22:57;101866.47;;;21.29;23.75
63343;BME280;49465;57.664;39.686;2023-04-08T09:25:33;101854.81;;;21.30;22.38
63343;BME280;49465;57.664;39.686;2023-04-08T09:28:02;101837.13;;;21.08;22.59
63343;BME280;49465;57.664;39.686;2023-04-08T09:30:32;101843.66;;;21.15;21.96
63343;BME280;49465;57.664;39.686;2023-04-08T09:32:58;101839.38;;;21.12;22.67
63343;BME280;49465;57.664;39.686;2023-04-08T09:35:29;101843.66;;;21.15;22.42
63343;BME280;49465;57.664;39.686;2023-04-08T09:38:07;101840.19;;;21.45;22.50
63343;BME280;49465;57.664;39.686;2023-04-08T09:40:40;101845.19;;;21.39;22.40
63343;BME280;49465;57.664;39.686;2023-04-08T09:43:11;101833.03;;;21.46;19.87
63343;BME280;49465;57.664;39.686;2023-04-08T09:45:42;101837.53;;;21.45;21.52
63343;BME280;49465;57.664;39.686;2023-04-08T09:48:21;101827.94;;;21.43;21.99
63343;BME280;49465;57.664;39.686;2023-04-08T09:50:54;101818.31;;;21.51;22.09
63343;BME280;49465;57.664;39.686;2023-04-08T09:53:37;101819.06;;;21.63;21.25
63343;BME280;49465;57.664;39.686;2023-04-08T09:56:07;101819.84;;;21.54;22.32
63343;BME280;49465;57.664;39.686;2023-04-08T09:59:08;101822.31;;;21.67;20.47
63343;BME280;49465;57.664;39.686;2023-04-08T10:01:53;101814.63;;;21.83;19.24
63343;BME280;49465;57.664;39.686;2023-04-08T10:04:34;101818.31;;;21.51;21.34
63343;BME280;49465;57.664;39.686;2023-04-08T10:07:17;101813.19;;;21.69;22.50
63343;BME280;49465;57.664;39.686;2023-04-08T10:09:47;101807.25;;;21.56;22.53
63343;BME280;49465;57.664;39.686;2023-04-08T10:12:14;101814.97;;;21.38;21.77
63343;BME280;49465;57.664;39.686;2023-04-08T10:14:41;101809.47;;;21.30;21.36
63343;BME280;49465;57.664;39.686;2023-04-08T10:17:28;101805.72;;;21.63;22.10
63343;BME280;49465;57.664;39.686;2023-04-08T10:20:07;101813.38;;;21.26;20.11
63343;BME280;49465;57.664;39.686;2023-04-08T10:23:07;101804.78;;;21.22;22.69
63343;BME280;49465;57.664;39.686;2023-04-08T10:25:37;101807.84;;;21.18;22.06
63343;BME280;49465;57.664;39.686;2023-04-08T10:28:22;101805.88;;;21.41;21.29
63343;BME280;49465;57.664;39.686;2023-04-08T10:30:55;101807.38;;;21.33;22.35
63343;BME280;49465;57.664;39.686;2023-04-08T10:33:36;101799.19;;;21.25;20.52
63343;BME280;49465;57.664;39.686;2023-04-08T10:36:12;101797.25;;;21.48;22.46
63343;BME280;49465;57.664;39.686;2023-04-08T10:38:40;101791.03;;;21.17;21.10
63343;BME280;49465;57.664;39.686;2023-04-08T10:41:13;101793.41;;;21.20;21.96
63343;BME280;49465;57.664;39.686;2023-04-08T10:43:52;101796.53;;;21.25;20.69
63343;BME280;49465;57.664;39.686;2023-04-08T10:46:26;101792.63;;;21.29;21.52
63343;BME280;49465;57.664;39.686;2023-04-08T10:49:02;101797.84;;;21.62;20.62
63343;BME280;49465;57.664;39.686;2023-04-08T10:51:41;101793.63;;;21.59;20.54
63343;BME280;49465;57.664;39.686;2023-04-08T10:54:14;101790.25;;;21.36;20.62
63343;BME280;49465;57.664;39.686;2023-04-08T10:56:49;101784.81;;;21.68;21.27
63343;BME280;49465;57.664;39.686;2023-04-08T10:59:27;101789.31;;;21.78;20.99
63343;BME280;49465;57.664;39.686;2023-04-08T11:01:58;101780.56;;;21.56;20.98
63343;BME280;49465;57.664;39.686;2023-04-08T11:04:28;101776.38;;;21.63;19.63
63343;BME280;49465;57.664;39.686;2023-04-08T11:07:12;101765.97;;;21.60;21.30
63343;BME280;49465;57.664;39.686;2023-04-08T11:09:42;101764.31;;;21.69;20.54
63343;BME280;49465;57.664;39.686;2023-04-08T11:12:14;101773.34;;;21.87;19.84
63343;BME280;49465;57.664;39.686;2023-04-08T11:14:46;101771.69;;;21.96;20.35
63343;BME280;49465;57.664;39.686;2023-04-08T11:17:14;101768.28;;;21.84;20.14
63343;BME280;49465;57.664;39.686;2023-04-08T11:19:47;101771.56;;;21.98;20.09
63343;BME280;49465;57.664;39.686;2023-04-08T11:22:16;101765.53;;;22.05;20.01
63343;BME280;49465;57.664;39.686;2023-04-08T11:24:45;101762.50;;;21.79;18.98
63343;BME280;49465;57.664;39.686;2023-04-08T11:27:15;101759.47;;;22.03;19.61
63343;BME280;49465;57.664;39.686;2023-04-08T11:29:42;101756.22;;;21.90;19.79
63343;BME280;49465;57.664;39.686;2023-04-08T11:32:15;101749.50;;;22.05;18.95
63343;BME280;49465;57.664;39.686;2023-04-08T11:34:44;101752.00;;;22.07;18.72
63343;BME280;49465;57.664;39.686;2023-04-08T11:37:15;101748.50;;;22.06;18.50
63343;BME280;49465;57.664;39.686;2023-04-08T11:39:45;101741.78;;;22.12;18.80
63343;BME280;49465;57.664;39.686;2023-04-08T11:42:32;101738.56;;;22.47;21.30
63343;BME280;49465;57.664;39.686;2023-04-08T11:45:12;101733.38;;;22.36;18.96
63343;BME280;49465;57.664;39.686;2023-04-08T11:47:44;101734.03;;;22.19;18.91
63343;BME280;49465;57.664;39.686;2023-04-08T11:50:25;101731.56;;;22.37;20.79
63343;BME280;49465;57.664;39.686;2023-04-08T11:52:53;101733.75;;;22.12;19.62
63343;BME280;49465;57.664;39.686;2023-04-08T11:55:30;101727.28;;;22.15;18.57
63343;BME280;49465;57.664;39.686;2023-04-08T11:58:04;101730.97;;;22.23;20.06
63343;BME280;49465;57.664;39.686;2023-04-08T12:00:31;101732.22;;;22.09;20.06
63343;BME280;49465;57.664;39.686;2023-04-08T12:03:14;101729.38;;;22.21;17.83
63343;BME280;49465;57.664;39.686;2023-04-08T12:05:52;101737.44;;;22.40;19.78
63343;BME280;49465;57.664;39.686;2023-04-08T12:08:25;101727.44;;;22.13;20.09
63343;BME280;49465;57.664;39.686;2023-04-08T12:10:54;101729.81;;;22.16;20.27
63343;BME280;49465;57.664;39.686;2023-04-08T12:13:23;101726.63;;;22.32;19.98
63343;BME280;49465;57.664;39.686;2023-04-08T12:15:50;101721.38;;;22.21;19.84
63343;BME280;49465;57.664;39.686;2023-04-08T12:18:19;101715.06;;;22.22;19.75
63343;BME280;49465;57.664;39.686;2023-04-08T12:20:48;101719.19;;;22.26;19.35
63343;BME280;49465;57.664;39.686;2023-04-08T12:23:18;101717.91;;;22.30;19.58
63343;BME280;49465;57.664;39.686;2023-04-08T12:25:47;101706.94;;;22.33;19.46
63343;BME280;49465;57.664;39.686;2023-04-08T12:28:13;101712.28;;;22.33;19.08
63343;BME280;49465;57.664;39.686;2023-04-08T12:30:40;101710.03;;;22.38;18.97
63343;BME280;49465;57.664;39.686;2023-04-08T12:33:09;101711.00;;;22.57;19.41
63343;BME280;49465;57.664;39.686;2023-04-08T12:35:42;101703.56;;;22.50;19.48
63343;BME280;49465;57.664;39.686;2023-04-08T12:38:11;101708.91;;;22.60;18.98
63343;BME280;49465;57.664;39.686;2023-04-08T12:40:37;101703.09;;;22.65;19.48
63343;BME280;49465;57.664;39.686;2023-04-08T12:43:06;101699.16;;;22.69;19.22
63343;BME280;49465;57.664;39.686;2023-04-08T12:45:33;101696.91;;;22.74;19.02
63343;BME280;49465;57.664;39.686;2023-04-08T12:48:02;101692.81;;;22.80;19.88
63343;BME280;49465;57.664;39.686;2023-04-08T12:50:31;101688.97;;;22.92;20.19
63343;BME280;49465;57.664;39.686;2023-04-08T12:52:58;101683.50;;;22.94;19.66
63343;BME280;49465;57.664;39.686;2023-04-08T12:55:30;101690.06;;;23.09;19.67
63343;BME280;49465;57.664;39.686;2023-04-08T12:57:59;101682.47;;;23.04;19.11
63343;BME280;49465;57.664;39.686;2023-04-08T13:00:26;101683.72;;;23.10;19.08
63343;BME280;49465;57.664;39.686;2023-04-08T13:02:53;101675.09;;;23.16;18.74
63343;BME280;49465;57.664;39.686;2023-04-08T13:05:27;101684.06;;;23.35;19.10
63343;BME280;49465;57.664;39.686;2023-04-08T13:07:54;101673.78;;;23.30;19.04
63343;BME280;49465;57.664;39.686;2023-04-08T13:10:20;101677.69;;;23.36;19.02
63343;BME280;49465;57.664;39.686;2023-04-08T13:12:49;101672.75;;;23.41;19.17